sensor_id;sensor_type;location;lat;lon;timestamp;pressure;altitude;pressure_sealevel;temperature;humidity
44872;BME280;30602;51.060;17.226;2023-03-13T00:03:01;100867.07;;;4.96;85.63
44872;BME280;30602;51.060;17.226;2023-03-13T00:07:06;100868.24;;;4.93;85.97
44872;BME280;30602;51.060;17.226;2023-03-13T00:11:06;100885.02;;;4.97;85.81
44872;BME280;30602;51.060;17.226;2023-03-13T00:15:19;100880.00;;;4.98;86.04
44872;BME280;30602;51.060;17.226;2023-03-13T00:19:27;100882.63;;;5.09;85.52
44872;BME280;30602;51.060;17.226;2023-03-13T00:23:12;100877.91;;;5.17;85.23
44872;BME280;30602;51.060;17.226;2023-03-13T00:31:07;100878.38;;;5.30;84.55
44872;BME280;30602;51.060;17.226;2023-03-13T00:35:03;100878.91;;;5.31;84.39
44872;BME280;30602;51.060;17.226;2023-03-13T00:38:35;100876.45;;;5.27;84.47
44872;BME280;30602;51.060;17.226;2023-03-13T00:42:07;100874.25;;;5.23;84.84
44872;BME280;30602;51.060;17.226;2023-03-13T00:45:26;100875.53;;;5.20;85.11
44872;BME280;30602;51.060;17.226;2023-03-13T00:49:10;100880.48;;;5.24;85.20
44872;BME280;30602;51.060;17.226;2023-03-13T00:52:52;100880.02;;;5.33;84.64
44872;BME280;30602;51.060;17.226;2023-03-13T00:56:16;100874.10;;;5.35;84.65
44872;BME280;30602;51.060;17.226;2023-03-13T00:59:40;100881.68;;;5.41;84.49
44872;BME280;30602;51.060;17.226;2023-03-13T01:03:23;100881.63;;;5.43;84.31
44872;BME280;30602;51.060;17.226;2023-03-13T01:07:08;100883.05;;;5.37;84.66
44872;BME280;30602;51.060;17.226;2023-03-13T01:14:51;100878.00;;;5.33;84.83
44872;BME280;30602;51.060;17.226;2023-03-13T01:19:27;100878.81;;;5.31;84.51
44872;BME280;30602;51.060;17.226;2023-03-13T01:23:41;100877.21;;;5.44;84.96
44872;BME280;30602;51.060;17.226;2023-03-13T01:27:17;100877.30;;;5.45;84.75
44872;BME280;30602;51.060;17.226;2023-03-13T01:30:47;100876.97;;;5.51;85.00
44872;BME280;30602;51.060;17.226;2023-03-13T01:34:20;100877.58;;;5.54;84.86
44872;BME280;30602;51.060;17.226;2023-03-13T01:38:37;100875.96;;;5.52;85.11
44872;BME280;30602;51.060;17.226;2023-03-13T01:42:21;100874.13;;;5.50;85.14
44872;BME280;30602;51.060;17.226;2023-03-13T01:46:02;100868.55;;;5.52;85.38
44872;BME280;30602;51.060;17.226;2023-03-13T01:49:45;100868.37;;;5.54;85.99
44872;BME280;30602;51.060;17.226;2023-03-13T01:53:09;100869.24;;;5.53;86.41
44872;BME280;30602;51.060;17.226;2023-03-13T01:56:38;100873.43;;;5.53;86.84
44872;BME280;30602;51.060;17.226;2023-03-13T02:00:26;100878.92;;;5.60;86.75
44872;BME280;30602;51.060;17.226;2023-03-13T02:04:09;100885.00;;;5.65;86.92
44872;BME280;30602;51.060;17.226;2023-03-13T02:08:06;100891.79;;;5.64;87.64
44872;BME280;30602;51.060;17.226;2023-03-13T02:15:42;100901.01;;;5.64;88.43
44872;BME280;30602;51.060;17.226;2023-03-13T02:19:47;100907.27;;;5.62;89.05
44872;BME280;30602;51.060;17.226;2023-03-13T02:28:04;100927.91;;;5.75;91.82
44872;BME280;30602;51.060;17.226;2023-03-13T02:32:31;100926.00;;;5.74;93.95
44872;BME280;30602;51.060;17.226;2023-03-13T02:36:38;100925.97;;;5.65;94.93
44872;BME280;30602;51.060;17.226;2023-03-13T02:40:37;100916.77;;;5.60;96.76
44872;BME280;30602;51.060;17.226;2023-03-13T02:44:13;100910.34;;;5.44;97.72
44872;BME280;30602;51.060;17.226;2023-03-13T02:48:32;100908.59;;;5.38;98.96
44872;BME280;30602;51.060;17.226;2023-03-13T02:56:47;100900.50;;;5.32;99.98
44872;BME280;30602;51.060;17.226;2023-03-13T03:00:11;100908.61;;;5.29;100.00
44872;BME280;30602;51.060;17.226;2023-03-13T03:04:01;100907.61;;;5.26;100.00
44872;BME280;30602;51.060;17.226;2023-03-13T03:07:24;100900.22;;;5.28;99.82
44872;BME280;30602;51.060;17.226;2023-03-13T03:11:04;100895.12;;;5.29;99.98
44872;BME280;30602;51.060;17.226;2023-03-13T03:14:23;100892.99;;;5.22;99.80
44872;BME280;30602;51.060;17.226;2023-03-13T03:18:01;100887.30;;;5.17;99.87
44872;BME280;30602;51.060;17.226;2023-03-13T03:21:19;100889.70;;;5.17;100.00
44872;BME280;30602;51.060;17.226;2023-03-13T03:25:45;100884.86;;;5.20;100.00
44872;BME280;30602;51.060;17.226;2023-03-13T03:29:31;100877.87;;;5.33;99.71
44872;BME280;30602;51.060;17.226;2023-03-13T03:33:39;100882.10;;;5.35;99.99
44872;BME280;30602;51.060;17.226;2023-03-13T03:36:59;100879.94;;;5.44;99.91
44872;BME280;30602;51.060;17.226;2023-03-13T03:40:38;100876.70;;;5.38;99.57
44872;BME280;30602;51.060;17.226;2023-03-13T03:44:32;100869.72;;;5.50;99.16
44872;BME280;30602;51.060;17.226;2023-03-13T03:48:15;100873.73;;;5.41;98.77
44872;BME280;30602;51.060;17.226;2023-03-13T03:51:42;100869.38;;;5.40;99.25
44872;BME280;30602;51.060;17.226;2023-03-13T03:54:58;100872.45;;;5.39;99.53
44872;BME280;30602;51.060;17.226;2023-03-13T03:59:03;100856.98;;;5.36;99.87
44872;BME280;30602;51.060;17.226;2023-03-13T04:02:31;100866.98;;;5.51;99.99
44872;BME280;30602;51.060;17.226;2023-03-13T04:07:00;100868.38;;;5.62;99.88
44872;BME280;30602;51.060;17.226;2023-03-13T04:11:30;100859.43;;;5.71;99.82
44872;BME280;30602;51.060;17.226;2023-03-13T04:14:54;100852.90;;;5.76;99.41
44872;BME280;30602;51.060;17.226;2023-03-13T04:19:07;100847.52;;;5.80;99.45
44872;BME280;30602;51.060;17.226;2023-03-13T04:23:03;100843.84;;;5.84;99.09
44872;BME280;30602;51.060;17.226;2023-03-13T04:27:06;100835.02;;;5.88;99.03
44872;BME280;30602;51.060;17.226;2023-03-13T04:31:17;100824.82;;;5.91;99.23
44872;BME280;30602;51.060;17.226;2023-03-13T04:34:37;100819.83;;;5.99;98.75
44872;BME280;30602;51.060;17.226;2023-03-13T04:38:21;100808.49;;;6.01;98.49
44872;BME280;30602;51.060;17.226;2023-03-13T04:42:35;100799.51;;;6.06;98.26
44872;BME280;30602;51.060;17.226;2023-03-13T04:46:22;100795.04;;;6.10;97.80
44872;BME280;30602;51.060;17.226;2023-03-13T04:50:39;100792.69;;;6.13;97.54
44872;BME280;30602;51.060;17.226;2023-03-13T04:54:54;100793.32;;;6.06;97.40
44872;BME280;30602;51.060;17.226;2023-03-13T04:59:19;100792.14;;;6.05;97.57
44872;BME280;30602;51.060;17.226;2023-03-13T05:03:00;100790.48;;;6.05;97.28
44872;BME280;30602;51.060;17.226;2023-03-13T05:08:00;100790.08;;;6.05;97.57
44872;BME280;30602;51.060;17.226;2023-03-13T05:11:56;100791.03;;;6.07;97.43
44872;BME280;30602;51.060;17.226;2023-03-13T05:15:53;100789.45;;;6.11;97.14
44872;BME280;30602;51.060;17.226;2023-03-13T05:19:19;100791.99;;;6.12;96.91
44872;BME280;30602;51.060;17.226;2023-03-13T05:23:16;100789.85;;;6.07;97.47
44872;BME280;30602;51.060;17.226;2023-03-13T05:26:58;100791.13;;;6.06;97.79
44872;BME280;30602;51.060;17.226;2023-03-13T05:30:57;100778.80;;;6.09;97.72
44872;BME280;30602;51.060;17.226;2023-03-13T05:34:21;100773.45;;;6.19;97.51
44872;BME280;30602;51.060;17.226;2023-03-13T05:37:38;100773.14;;;6.26;96.77
44872;BME280;30602;51.060;17.226;2023-03-13T05:42:29;100767.54;;;6.36;96.72
44872;BME280;30602;51.060;17.226;2023-03-13T05:45:47;100771.42;;;6.42;96.04
44872;BME280;30602;51.060;17.226;2023-03-13T05:49:49;100756.46;;;6.37;96.29
44872;BME280;30602;51.060;17.226;2023-03-13T05:53:49;100759.07;;;6.46;95.96
44872;BME280;30602;51.060;17.226;2023-03-13T05:57:19;100761.02;;;6.40;95.81
44872;BME280;30602;51.060;17.226;2023-03-13T06:01:10;100761.45;;;6.40;95.79
44872;BME280;30602;51.060;17.226;2023-03-13T06:05:56;100756.70;;;6.40;95.84
44872;BME280;30602;51.060;17.226;2023-03-13T06:09:36;100754.27;;;6.48;95.20
44872;BME280;30602;51.060;17.226;2023-03-13T06:12:59;100751.48;;;6.48;95.27
44872;BME280;30602;51.060;17.226;2023-03-13T06:16:56;100748.47;;;6.55;95.11
44872;BME280;30602;51.060;17.226;2023-03-13T06:21:10;100743.76;;;6.58;95.19
44872;BME280;30602;51.060;17.226;2023-03-13T06:25:48;100740.57;;;6.58;95.41
44872;BME280;30602;51.060;17.226;2023-03-13T06:29:45;100738.12;;;6.69;95.25
44872;BME280;30602;51.060;17.226;2023-03-13T06:37:24;100728.24;;;6.81;94.75
44872;BME280;30602;51.060;17.226;2023-03-13T06:40:59;100728.86;;;6.91;94.49
44872;BME280;30602;51.060;17.226;2023-03-13T06:44:53;100717.15;;;6.98;94.01
44872;BME280;30602;51.060;17.226;2023-03-13T06:48:37;100710.82;;;7.09;93.29
44872;BME280;30602;51.060;17.226;2023-03-13T06:52:54;100706.48;;;7.16;93.32
44872;BME280;30602;51.060;17.226;2023-03-13T06:56:36;100703.68;;;7.28;92.61
44872;BME280;30602;51.060;17.226;2023-03-13T07:00:21;100710.47;;;7.45;91.87
44872;BME280;30602;51.060;17.226;2023-03-13T07:04:05;100702.49;;;7.60;91.60
44872;BME280;30602;51.060;17.226;2023-03-13T07:07:48;100707.99;;;7.72;91.13
44872;BME280;30602;51.060;17.226;2023-03-13T07:11:22;100708.96;;;7.79;90.73
44872;BME280;30602;51.060;17.226;2023-03-13T07:15:06;100703.15;;;7.99;89.75
44872;BME280;30602;51.060;17.226;2023-03-13T07:19:17;100690.02;;;8.20;89.08
44872;BME280;30602;51.060;17.226;2023-03-13T07:22:52;100677.88;;;8.36;88.23
44872;BME280;30602;51.060;17.226;2023-03-13T07:26:37;100674.97;;;8.51;87.36
44872;BME280;30602;51.060;17.226;2023-03-13T07:30:34;100662.26;;;8.71;87.40
44872;BME280;30602;51.060;17.226;2023-03-13T07:33:59;100658.23;;;8.83;85.48
44872;BME280;30602;51.060;17.226;2023-03-13T07:37:27;100658.19;;;8.89;85.42
44872;BME280;30602;51.060;17.226;2023-03-13T07:40:53;100661.00;;;9.04;84.74
44872;BME280;30602;51.060;17.226;2023-03-13T07:44:32;100649.82;;;9.19;84.48
44872;BME280;30602;51.060;17.226;2023-03-13T07:48:07;100641.98;;;9.39;83.26
44872;BME280;30602;51.060;17.226;2023-03-13T07:51:29;100629.88;;;9.57;82.76
44872;BME280;30602;51.060;17.226;2023-03-13T07:55:10;100621.77;;;9.85;81.92
44872;BME280;30602;51.060;17.226;2023-03-13T07:58:37;100619.29;;;9.99;81.04
44872;BME280;30602;51.060;17.226;2023-03-13T08:02:33;100621.69;;;10.00;79.91
44872;BME280;30602;51.060;17.226;2023-03-13T08:06:01;100628.77;;;9.89;79.38
44872;BME280;30602;51.060;17.226;2023-03-13T08:09:22;100622.88;;;9.84;80.41
44872;BME280;30602;51.060;17.226;2023-03-13T08:13:18;100625.79;;;9.86;80.55
44872;BME280;30602;51.060;17.226;2023-03-13T08:17:53;100624.20;;;9.86;79.29
44872;BME280;30602;51.060;17.226;2023-03-13T08:21:23;100615.63;;;9.86;79.61
44872;BME280;30602;51.060;17.226;2023-03-13T08:25:09;100616.17;;;9.94;79.69
44872;BME280;30602;51.060;17.226;2023-03-13T08:28:45;100607.88;;;9.95;80.22
44872;BME280;30602;51.060;17.226;2023-03-13T08:32:27;100595.53;;;10.07;79.53
44872;BME280;30602;51.060;17.226;2023-03-13T08:36:11;100588.51;;;10.04;79.08
44872;BME280;30602;51.060;17.226;2023-03-13T08:40:10;100579.09;;;10.13;79.49
44872;BME280;30602;51.060;17.226;2023-03-13T08:43:54;100596.13;;;10.26;78.52
44872;BME280;30602;51.060;17.226;2023-03-13T08:47:29;100599.03;;;10.31;78.38
44872;BME280;30602;51.060;17.226;2023-03-13T08:50:59;100586.88;;;10.36;78.36
44872;BME280;30602;51.060;17.226;2023-03-13T08:55:16;100579.64;;;10.38;78.46
44872;BME280;30602;51.060;17.226;2023-03-13T08:58:35;100581.91;;;10.43;78.52
44872;BME280;30602;51.060;17.226;2023-03-13T09:02:31;100555.72;;;10.43;78.63
44872;BME280;30602;51.060;17.226;2023-03-13T09:06:36;100556.63;;;10.48;77.92
44872;BME280;30602;51.060;17.226;2023-03-13T09:10:27;100547.00;;;10.67;77.32
44872;BME280;30602;51.060;17.226;2023-03-13T09:14:09;100551.77;;;10.66;76.41
44872;BME280;30602;51.060;17.226;2023-03-13T09:18:15;100544.66;;;10.78;76.20
44872;BME280;30602;51.060;17.226;2023-03-13T09:22:09;100530.36;;;10.78;75.11
44872;BME280;30602;51.060;17.226;2023-03-13T09:26:01;100532.34;;;10.84;75.55
44872;BME280;30602;51.060;17.226;2023-03-13T09:30:09;100525.30;;;10.91;75.77
44872;BME280;30602;51.060;17.226;2023-03-13T09:34:36;100522.35;;;10.94;75.93
44872;BME280;30602;51.060;17.226;2023-03-13T09:38:20;100509.72;;;11.01;76.18
44872;BME280;30602;51.060;17.226;2023-03-13T09:47:05;100497.13;;;10.99;75.55
44872;BME280;30602;51.060;17.226;2023-03-13T09:50:51;100482.71;;;10.99;75.95
44872;BME280;30602;51.060;17.226;2023-03-13T09:54:27;100479.59;;;11.03;74.51
44872;BME280;30602;51.060;17.226;2023-03-13T09:58:18;100465.57;;;11.01;74.23
44872;BME280;30602;51.060;17.226;2023-03-13T10:02:36;100458.29;;;10.97;75.09
44872;BME280;30602;51.060;17.226;2023-03-13T10:06:48;100438.42;;;10.90;74.93
44872;BME280;30602;51.060;17.226;2023-03-13T10:10:43;100430.44;;;10.88;75.50
44872;BME280;30602;51.060;17.226;2023-03-13T10:14:53;100432.85;;;11.01;75.38
44872;BME280;30602;51.060;17.226;2023-03-13T10:18:39;100418.87;;;11.04;73.57
44872;BME280;30602;51.060;17.226;2023-03-13T10:22:27;100412.69;;;10.96;75.04
44872;BME280;30602;51.060;17.226;2023-03-13T10:26:56;100404.81;;;10.89;76.25
44872;BME280;30602;51.060;17.226;2023-03-13T10:35:05;100398.34;;;10.65;80.30
44872;BME280;30602;51.060;17.226;2023-03-13T10:38:50;100395.57;;;10.56;82.89
44872;BME280;30602;51.060;17.226;2023-03-13T10:46:59;100384.48;;;10.31;84.79
44872;BME280;30602;51.060;17.226;2023-03-13T10:50:34;100380.66;;;10.28;85.73
44872;BME280;30602;51.060;17.226;2023-03-13T10:54:49;100377.90;;;10.27;85.16
44872;BME280;30602;51.060;17.226;2023-03-13T11:07:34;100379.41;;;10.41;84.42
44872;BME280;30602;51.060;17.226;2023-03-13T11:11:19;100383.05;;;10.43;85.05
44872;BME280;30602;51.060;17.226;2023-03-13T11:14:44;100385.74;;;10.45;83.93
44872;BME280;30602;51.060;17.226;2023-03-13T11:27:05;100382.02;;;10.63;83.79
44872;BME280;30602;51.060;17.226;2023-03-13T12:02:40;100323.38;;;11.30;78.16
44872;BME280;30602;51.060;17.226;2023-03-13T12:06:20;100321.58;;;11.28;78.68
44872;BME280;30602;51.060;17.226;2023-03-13T12:14:27;100322.09;;;11.34;78.69
44872;BME280;30602;51.060;17.226;2023-03-13T12:18:39;100313.41;;;11.36;78.60
44872;BME280;30602;51.060;17.226;2023-03-13T12:26:17;100301.73;;;11.40;78.61
44872;BME280;30602;51.060;17.226;2023-03-13T12:30:36;100303.53;;;11.33;78.87
44872;BME280;30602;51.060;17.226;2023-03-13T12:38:25;100305.43;;;11.30;81.21
44872;BME280;30602;51.060;17.226;2023-03-13T12:57:39;100266.89;;;11.57;82.29
44872;BME280;30602;51.060;17.226;2023-03-13T13:01:51;100264.34;;;11.64;81.19
44872;BME280;30602;51.060;17.226;2023-03-13T13:05:20;100266.20;;;11.85;81.19
44872;BME280;30602;51.060;17.226;2023-03-13T13:09:23;100262.74;;;11.92;80.94
44872;BME280;30602;51.060;17.226;2023-03-13T13:26:50;100265.51;;;11.85;80.58
44872;BME280;30602;51.060;17.226;2023-03-13T13:30:35;100216.84;;;11.55;80.82
44872;BME280;30602;51.060;17.226;2023-03-13T13:35:00;100258.24;;;11.82;80.21
44872;BME280;30602;51.060;17.226;2023-03-13T13:38:27;100262.40;;;11.94;80.31
44872;BME280;30602;51.060;17.226;2023-03-13T13:42:54;100260.49;;;11.99;80.29
44872;BME280;30602;51.060;17.226;2023-03-13T13:46:26;100249.31;;;12.04;80.08
44872;BME280;30602;51.060;17.226;2023-03-13T13:50:25;100246.55;;;12.02;79.77
44872;BME280;30602;51.060;17.226;2023-03-13T14:07:04;100235.68;;;12.08;79.08
44872;BME280;30602;51.060;17.226;2023-03-13T14:10:52;100236.36;;;12.09;78.77
44872;BME280;30602;51.060;17.226;2023-03-13T14:15:25;100237.83;;;12.14;78.93
44872;BME280;30602;51.060;17.226;2023-03-13T14:19:00;100225.65;;;12.13;78.84
44872;BME280;30602;51.060;17.226;2023-03-13T14:22:47;100231.00;;;12.23;78.83
44872;BME280;30602;51.060;17.226;2023-03-13T14:26:43;100239.56;;;12.13;78.70
44872;BME280;30602;51.060;17.226;2023-03-13T14:30:12;100242.40;;;12.22;78.94
44872;BME280;30602;51.060;17.226;2023-03-13T14:34:37;100237.57;;;12.25;78.48
44872;BME280;30602;51.060;17.226;2023-03-13T14:38:59;100233.56;;;12.34;78.14
44872;BME280;30602;51.060;17.226;2023-03-13T14:43:32;100233.30;;;12.40;78.26
44872;BME280;30602;51.060;17.226;2023-03-13T14:51:08;100235.11;;;12.44;78.01
44872;BME280;30602;51.060;17.226;2023-03-13T14:54:57;100244.30;;;12.43;80.16
44872;BME280;30602;51.060;17.226;2023-03-13T14:58:44;100235.99;;;12.40;80.67
44872;BME280;30602;51.060;17.226;2023-03-13T15:10:32;100225.14;;;12.24;80.64
44872;BME280;30602;51.060;17.226;2023-03-13T15:17:58;100237.46;;;12.28;79.42
44872;BME280;30602;51.060;17.226;2023-03-13T15:21:40;100225.33;;;12.33;79.05
44872;BME280;30602;51.060;17.226;2023-03-13T15:25:34;100229.32;;;12.41;78.58
44872;BME280;30602;51.060;17.226;2023-03-13T15:29:11;100238.71;;;12.51;78.16
44872;BME280;30602;51.060;17.226;2023-03-13T15:32:38;100243.87;;;12.47;77.89
44872;BME280;30602;51.060;17.226;2023-03-13T15:36:28;100237.35;;;12.38;78.25
44872;BME280;30602;51.060;17.226;2023-03-13T15:40:08;100225.19;;;12.26;78.40
44872;BME280;30602;51.060;17.226;2023-03-13T15:43:50;100221.45;;;12.18;78.97
44872;BME280;30602;51.060;17.226;2023-03-13T15:48:22;100219.26;;;12.07;79.50
44872;BME280;30602;51.060;17.226;2023-03-13T15:52:10;100211.29;;;12.02;79.59
44872;BME280;30602;51.060;17.226;2023-03-13T15:56:32;100200.80;;;12.01;79.42
44872;BME280;30602;51.060;17.226;2023-03-13T16:00:20;100197.11;;;12.03;78.79
44872;BME280;30602;51.060;17.226;2023-03-13T16:04:15;100186.59;;;12.04;78.46
44872;BME280;30602;51.060;17.226;2023-03-13T16:07:54;100167.87;;;12.13;78.18
44872;BME280;30602;51.060;17.226;2023-03-13T16:11:41;100166.47;;;12.08;78.36
44872;BME280;30602;51.060;17.226;2023-03-13T16:15:22;100153.66;;;12.03;78.04
44872;BME280;30602;51.060;17.226;2023-03-13T16:19:16;100149.90;;;12.08;77.82
44872;BME280;30602;51.060;17.226;2023-03-13T16:22:55;100143.28;;;12.04;78.10
44872;BME280;30602;51.060;17.226;2023-03-13T16:26:37;100146.03;;;12.02;78.27
44872;BME280;30602;51.060;17.226;2023-03-13T16:34:07;100134.85;;;11.97;78.42
44872;BME280;30602;51.060;17.226;2023-03-13T16:38:02;100129.74;;;11.88;78.78
44872;BME280;30602;51.060;17.226;2023-03-13T16:41:44;100130.48;;;11.85;79.06
44872;BME280;30602;51.060;17.226;2023-03-13T16:46:01;100147.44;;;11.78;79.48
44872;BME280;30602;51.060;17.226;2023-03-13T16:49:24;100145.13;;;11.65;79.93
44872;BME280;30602;51.060;17.226;2023-03-13T16:52:43;100146.69;;;11.55;80.53
44872;BME280;30602;51.060;17.226;2023-03-13T17:00:19;100116.81;;;11.27;82.20
44872;BME280;30602;51.060;17.226;2023-03-13T17:07:57;100105.52;;;11.02;83.57
44872;BME280;30602;51.060;17.226;2023-03-13T17:12:10;100110.16;;;10.83;84.30
44872;BME280;30602;51.060;17.226;2023-03-13T17:16:00;100117.20;;;10.70;84.68
44872;BME280;30602;51.060;17.226;2023-03-13T17:19:25;100113.87;;;10.69;84.58
44872;BME280;30602;51.060;17.226;2023-03-13T17:23:40;100113.52;;;10.62;84.74
44872;BME280;30602;51.060;17.226;2023-03-13T17:27:24;100111.19;;;10.48;85.38
44872;BME280;30602;51.060;17.226;2023-03-13T17:31:09;100106.67;;;10.37;85.90
44872;BME280;30602;51.060;17.226;2023-03-13T17:39:14;100097.49;;;10.29;86.35
44872;BME280;30602;51.060;17.226;2023-03-13T17:42:38;100106.87;;;10.33;85.85
44872;BME280;30602;51.060;17.226;2023-03-13T17:46:13;100114.73;;;10.42;85.29
44872;BME280;30602;51.060;17.226;2023-03-13T17:50:28;100110.84;;;10.57;84.37
44872;BME280;30602;51.060;17.226;2023-03-13T17:54:00;100106.48;;;10.66;83.59
44872;BME280;30602;51.060;17.226;2023-03-13T17:57:51;100096.77;;;10.78;82.96
44872;BME280;30602;51.060;17.226;2023-03-13T18:02:16;100083.70;;;10.86;82.39
44872;BME280;30602;51.060;17.226;2023-03-13T18:10:21;100091.95;;;11.02;81.42
44872;BME280;30602;51.060;17.226;2023-03-13T18:14:39;100093.17;;;11.03;81.35
44872;BME280;30602;51.060;17.226;2023-03-13T18:18:02;100087.03;;;11.06;81.07
44872;BME280;30602;51.060;17.226;2023-03-13T18:21:25;100098.95;;;11.03;81.18
44872;BME280;30602;51.060;17.226;2023-03-13T18:30:16;100096.92;;;10.87;82.05
44872;BME280;30602;51.060;17.226;2023-03-13T18:34:03;100096.88;;;10.84;82.28
44872;BME280;30602;51.060;17.226;2023-03-13T18:37:57;100099.72;;;10.78;82.72
44872;BME280;30602;51.060;17.226;2023-03-13T18:41:50;100113.12;;;10.81;82.67
44872;BME280;30602;51.060;17.226;2023-03-13T18:45:33;100109.09;;;10.85;82.57
44872;BME280;30602;51.060;17.226;2023-03-13T18:53:38;100093.21;;;10.70;83.18
44872;BME280;30602;51.060;17.226;2023-03-13T18:57:00;100084.32;;;10.61;83.53
44872;BME280;30602;51.060;17.226;2023-03-13T19:01:12;100079.27;;;10.50;84.21
44872;BME280;30602;51.060;17.226;2023-03-13T19:04:37;100073.55;;;10.52;84.01
44872;BME280;30602;51.060;17.226;2023-03-13T19:12:14;100071.19;;;10.39;84.68
44872;BME280;30602;51.060;17.226;2023-03-13T19:20:32;100067.04;;;10.43;84.50
44872;BME280;30602;51.060;17.226;2023-03-13T19:24:28;100059.77;;;10.53;83.82
44872;BME280;30602;51.060;17.226;2023-03-13T19:28:25;100058.06;;;10.68;82.72
44872;BME280;30602;51.060;17.226;2023-03-13T19:32:10;100044.27;;;10.86;80.90
44872;BME280;30602;51.060;17.226;2023-03-13T19:35:57;100041.28;;;10.97;79.37
44872;BME280;30602;51.060;17.226;2023-03-13T19:39:56;100037.28;;;11.07;78.02
44872;BME280;30602;51.060;17.226;2023-03-13T19:43:44;100039.74;;;11.07;77.65
44872;BME280;30602;51.060;17.226;2023-03-13T19:47:26;100039.18;;;11.00;77.65
44872;BME280;30602;51.060;17.226;2023-03-13T19:50:48;100037.20;;;10.95;77.68
44872;BME280;30602;51.060;17.226;2023-03-13T19:54:48;100032.30;;;10.86;77.87
44872;BME280;30602;51.060;17.226;2023-03-13T19:58:17;100033.11;;;10.80;77.56
44872;BME280;30602;51.060;17.226;2023-03-13T20:01:41;100030.48;;;10.79;76.74
44872;BME280;30602;51.060;17.226;2023-03-13T20:05:13;100037.85;;;10.80;76.57
44872;BME280;30602;51.060;17.226;2023-03-13T20:09:04;100034.81;;;10.74;76.80
44872;BME280;30602;51.060;17.226;2023-03-13T20:12:56;100022.64;;;10.71;77.19
44872;BME280;30602;51.060;17.226;2023-03-13T20:16:21;99998.00;;;10.62;77.67
44872;BME280;30602;51.060;17.226;2023-03-13T20:20:04;100006.65;;;10.61;78.07
44872;BME280;30602;51.060;17.226;2023-03-13T20:23:57;100003.26;;;10.60;78.55
44872;BME280;30602;51.060;17.226;2023-03-13T20:27:52;99999.38;;;10.55;78.11
44872;BME280;30602;51.060;17.226;2023-03-13T20:31:30;99999.43;;;10.57;76.65
44872;BME280;30602;51.060;17.226;2023-03-13T20:35:41;100010.55;;;10.70;74.88
44872;BME280;30602;51.060;17.226;2023-03-13T20:39:24;100007.05;;;10.73;74.03
44872;BME280;30602;51.060;17.226;2023-03-13T20:46:51;99981.73;;;10.71;73.63
44872;BME280;30602;51.060;17.226;2023-03-13T20:51:51;99969.73;;;10.69;73.62
44872;BME280;30602;51.060;17.226;2023-03-13T20:55:11;99956.76;;;10.60;73.61
44872;BME280;30602;51.060;17.226;2023-03-13T20:59:06;99966.86;;;10.61;73.10
44872;BME280;30602;51.060;17.226;2023-03-13T21:02:53;99954.54;;;10.70;71.78
44872;BME280;30602;51.060;17.226;2023-03-13T21:06:32;99954.98;;;10.74;70.97
44872;BME280;30602;51.060;17.226;2023-03-13T21:09:50;99950.30;;;10.78;69.97
44872;BME280;30602;51.060;17.226;2023-03-13T21:13:45;99938.30;;;10.80;69.40
44872;BME280;30602;51.060;17.226;2023-03-13T21:17:21;99934.16;;;10.75;69.37
44872;BME280;30602;51.060;17.226;2023-03-13T21:20:41;99929.75;;;10.74;69.17
44872;BME280;30602;51.060;17.226;2023-03-13T21:24:34;99916.23;;;10.73;69.42
44872;BME280;30602;51.060;17.226;2023-03-13T21:28:24;99906.70;;;10.69;69.60
44872;BME280;30602;51.060;17.226;2023-03-13T21:32:09;99905.55;;;10.59;70.31
44872;BME280;30602;51.060;17.226;2023-03-13T21:36:06;99908.12;;;10.45;71.59
44872;BME280;30602;51.060;17.226;2023-03-13T21:39:28;99904.07;;;10.28;72.47
44872;BME280;30602;51.060;17.226;2023-03-13T21:43:09;99903.09;;;10.14;72.45
44872;BME280;30602;51.060;17.226;2023-03-13T21:47:16;99893.43;;;10.04;72.20
44872;BME280;30602;51.060;17.226;2023-03-13T21:51:30;99891.58;;;10.07;70.97
44872;BME280;30602;51.060;17.226;2023-03-13T21:58:48;99880.29;;;9.94;71.35
44872;BME280;30602;51.060;17.226;2023-03-13T22:02:12;99870.99;;;9.81;72.22
44872;BME280;30602;51.060;17.226;2023-03-13T22:05:42;99876.54;;;9.68;72.68
44872;BME280;30602;51.060;17.226;2023-03-13T22:09:58;99867.07;;;9.62;72.67
44872;BME280;30602;51.060;17.226;2023-03-13T22:13:41;99860.79;;;9.55;72.87
44872;BME280;30602;51.060;17.226;2023-03-13T22:17:46;99869.82;;;9.39;73.66
44872;BME280;30602;51.060;17.226;2023-03-13T22:21:40;99864.11;;;9.27;73.77
44872;BME280;30602;51.060;17.226;2023-03-13T22:25:42;99861.82;;;9.21;73.93
44872;BME280;30602;51.060;17.226;2023-03-13T22:29:34;99859.31;;;9.10;74.68
44872;BME280;30602;51.060;17.226;2023-03-13T22:33:40;99840.20;;;8.93;74.76
44872;BME280;30602;51.060;17.226;2023-03-13T22:42:30;99823.34;;;8.83;75.81
44872;BME280;30602;51.060;17.226;2023-03-13T22:46:23;99816.35;;;8.86;75.14
44872;BME280;30602;51.060;17.226;2023-03-13T22:50:27;99808.35;;;8.95;74.42
44872;BME280;30602;51.060;17.226;2023-03-13T22:54:21;99805.96;;;9.14;73.31
44872;BME280;30602;51.060;17.226;2023-03-13T22:57:42;99796.23;;;9.25;72.46
44872;BME280;30602;51.060;17.226;2023-03-13T23:01:33;99773.30;;;9.18;72.56
44872;BME280;30602;51.060;17.226;2023-03-13T23:04:56;99772.92;;;9.19;72.85
44872;BME280;30602;51.060;17.226;2023-03-13T23:08:37;99787.16;;;9.21;72.56
44872;BME280;30602;51.060;17.226;2023-03-13T23:11:58;99778.28;;;9.13;73.25
44872;BME280;30602;51.060;17.226;2023-03-13T23:15:49;99772.19;;;9.12;72.88
44872;BME280;30602;51.060;17.226;2023-03-13T23:20:14;99784.82;;;9.10;72.97